RCTP

Taiwan Taoyuan International Airport

Taipei, Taiwan
TAF RCTP 260500Z 2606/2712 05012KT 9999 FEW020 TEMPO 2618/2624 09007KT
Issued Valid From Valid To
Apr-26 @ 05:00 UTC
(57 minutes ago)
Apr-26 @ 06:00 UTC
(in 3 minutes)
Apr-27 @ 12:00 UTC
(-1 days ago)
Apr-26 @ 06:00 to Apr-27 @ 12:00
TAF RCTP 260500Z 2606/2712 05012KT 9999 FEW020
Wind Visibility Clouds
50° at 12 knots 10,000+ meters
  • Few at 2,000' AGL
Temporary Apr-26 @ 18:00 to Apr-27 @ 00:00
TEMPO 2618/2624 09007KT
Wind
90° at 7 knots
TAF RCTP 260500Z 2606/2712 05012KT 9999 FEW020 TEMPO 2618/2624 09007KT
Issued Apr-26 @ 05:00 UTC
(57 minutes ago)
Valid From Apr-26 @ 06:00 UTC
(in 3 minutes)
Valid To Apr-27 @ 12:00 UTC
(-1 days ago)
Apr-26 @ 06:00 - Apr-27 @ 12:00
Wind Visibility
50° at 12 knots 10,000+ meters
Clouds
  • Few at 2,000' AGL
Temporary Apr-26 @ 18:00 - Apr-27 @ 00:00
Wind
90° at 7 knots